M I D A S
Marine Information and Data Acquisition System
Tripno 1188 of the Zeeleeuw from 2006-11-23 08:00:51 to 2006-11-23 12:56:23
Back to CruiseResearch ActivitiesStationsMapUnderway DataData graphs

EquipmentUnitsComment
TimeDGPSUTC
LatitudeDGPSDM.mWGS84
LongitudeDGPSDM.mWGS84
HeadingGyrodeg 
SOGDGPSknotsSpeed over ground
COGDGPSdegCourse over ground
DepthEcho soundermeters200 kHz
Missing or incorrect values are displayed as -999
Navigation data collected by the RV Zeeleeuw from 2006-11-23 08:01:19 to 2006-11-23 13:12:53
Time Latitude Longitude Heading SOG COG Depth
2006-11-23 08:02:25 51°13.615 2°56.024 111 3.9 292 -999
2006-11-23 08:03:25 51°13.645 2°55.905 120.7 5.1 297 -999
2006-11-23 08:04:25 51°13.69 2°55.8 129.6 4.9 309 -999
2006-11-23 08:05:23 51°13.723 2°55.728 104.5 0.3 26 10.7
2006-11-23 08:06:24 51°13.734 2°55.744 42.3 0.4 305 10.5
2006-11-23 08:07:23 51°13.723 2°55.725 14.5 1.1 347 10.3
2006-11-23 08:08:24 51°13.779 2°55.677 336.8 5.7 331 9
2006-11-23 08:09:24 51°13.881 2°55.597 338.4 7.2 334 8.9
2006-11-23 08:10:23 51°13.988 2°55.519 340.8 7 337 9.5
2006-11-23 08:11:24 51°14.09 2°55.446 340.4 6.4 335 9.5
2006-11-23 08:12:24 51°14.201 2°55.35 330.8 9.1 326 -999
2006-11-23 08:13:23 51°14.316 2°55.169 315.6 10.1 311 9.1
2006-11-23 08:14:23 51°14.453 2°55.003 339.3 11.1 333 9
2006-11-23 08:15:24 51°14.63 2°54.855 337.8 12 329 8.2
2006-11-23 08:16:24 51°14.799 2°54.686 335.6 12.1 327 8.2
2006-11-23 08:17:23 51°14.978 2°54.514 336.8 13 329 7.7
2006-11-23 08:18:24 51°15.162 2°54.327 332.6 12.9 326 7.7
2006-11-23 08:19:23 51°15.351 2°54.163 339.6 13.4 330 8.3
2006-11-23 08:20:23 51°15.54 2°53.968 337.8 13.5 329 9
2006-11-23 08:21:23 51°15.732 2°53.78 336.8 13.6 327 9.6
2006-11-23 08:22:24 51°15.928 2°53.584 336 13.6 327 10.3
2006-11-23 08:23:23 51°16.115 2°53.394 337 13.6 328 10.6
2006-11-23 08:24:23 51°16.306 2°53.203 336.8 13.6 328 11
2006-11-23 08:25:24 51°16.501 2°53.012 337.4 13.5 329 10.5
2006-11-23 08:26:23 51°16.692 2°52.839 339.1 13.2 333 10.2
2006-11-23 08:27:24 51°16.884 2°52.668 339.1 12.9 330 8.5
2006-11-23 08:28:24 51°17.082 2°52.53 352.7 12.8 346 8.7
2006-11-23 08:29:24 51°17.297 2°52.494 2.9 13 354 9.2
2006-11-23 08:30:24 51°17.512 2°52.446 1.2 13.1 353 9.5
2006-11-23 08:31:24 51°17.728 2°52.43 7.9 13 -999 9.6
2006-11-23 08:32:24 51°17.942 2°52.453 14 12.9 7 9.8
2006-11-23 08:33:24 51°18.142 2°52.565 38.1 13 30 9.9
2006-11-23 08:34:23 51°18.294 2°52.796 47.5 13.1 42 10.3
2006-11-23 08:35:23 51°18.456 2°53.021 44 13.2 43 10.4
2006-11-23 08:36:24 51°18.625 2°53.242 44.8 12.8 30 10.7
2006-11-23 08:37:23 51°18.786 2°53.45 45.5 12.5 44 11
2006-11-23 08:38:24 51°18.962 2°53.652 42.7 12.9 32 11.1
2006-11-23 08:39:23 51°19.131 2°53.851 39.4 12.8 34 11.3
2006-11-23 08:40:23 51°19.306 2°54.05 46.7 12.7 40 11.5
2006-11-23 08:41:24 51°19.474 2°54.277 45.7 12.8 41 11.6
2006-11-23 08:42:24 51°19.638 2°54.497 44.9 12.8 42 11.7
2006-11-23 08:43:23 51°19.798 2°54.718 47.1 12.8 40 12.2
2006-11-23 08:44:24 51°19.969 2°54.929 43.9 12.8 32 12
2006-11-23 08:45:24 51°20.129 2°55.142 43.3 12.5 42 12.5
2006-11-23 08:46:24 51°20.293 2°55.361 44.9 12.9 34 12.5
2006-11-23 08:47:24 51°20.457 2°55.582 47.7 13 41 12.6
2006-11-23 08:48:24 51°20.618 2°55.81 48.1 13 44 13
2006-11-23 08:49:24 51°20.776 2°56.036 48.9 12.8 44 13
2006-11-23 08:50:24 51°20.933 2°56.27 47.1 13.1 44 13.1
2006-11-23 08:51:24 51°21.084 2°56.505 50.2 12.6 49 13.3
2006-11-23 08:52:24 51°21.226 2°56.758 53.2 13 53 13.4
2006-11-23 08:53:24 51°21.341 2°57.042 62.1 13 59 13.4
2006-11-23 08:54:24 51°21.455 2°57.332 63.4 12.5 61 13.4
2006-11-23 08:55:24 51°21.561 2°57.627 65 13.1 63 13.2
2006-11-23 08:56:24 51°21.658 2°57.928 60.2 12.9 56 13.1
2006-11-23 08:57:24 51°21.757 2°58.167 61.7 7.9 55 13.3
2006-11-23 08:58:24 51°21.798 2°58.246 48.3 2.4 39 13.4
2006-11-23 08:59:24 51°21.862 2°58.195 305.1 6.2 291 13.4
2006-11-23 09:00:24 51°21.845 2°58.079 237.9 3.3 236 13.6
2006-11-23 09:01:24 51°21.819 2°58.001 239.1 3.4 237 14
2006-11-23 09:02:24 51°21.771 2°57.954 190.7 3.6 188 13.7
2006-11-23 09:03:24 51°21.711 2°57.975 132.7 4.1 130 13.4
2006-11-23 09:04:24 51°21.728 2°58.08 56.1 4.6 53 13.5
2006-11-23 09:05:23 51°21.745 2°58.136 83.6 0.2 120 13.4
2006-11-23 09:06:24 51°21.744 2°58.139 105.1 0.2 170 13.4
2006-11-23 09:07:23 51°21.74 2°58.142 119.1 0.4 153 13.3
2006-11-23 09:08:24 51°21.732 2°58.145 129.3 0.4 167 13.4
2006-11-23 09:09:24 51°21.726 2°58.147 132.6 0.3 168 13.3
2006-11-23 09:10:24 51°21.722 2°58.147 132.2 0.2 186 13.3
2006-11-23 09:11:24 51°21.719 2°58.146 135.5 0.3 178 13.2
2006-11-23 09:12:24 51°21.716 2°58.145 135.2 0.2 210 13.4
2006-11-23 09:13:24 51°21.715 2°58.142 130.6 0.2 183 13.1
2006-11-23 09:14:24 51°21.713 2°58.14 129.2 0.1 309 13.8
2006-11-23 09:15:24 51°21.711 2°58.138 127.7 0.1 161 13.3
2006-11-23 09:16:24 51°21.709 2°58.135 127.1 0.3 207 13.4
2006-11-23 09:17:24 51°21.707 2°58.133 126.2 0.1 158 13.3
2006-11-23 09:18:24 51°21.705 2°58.132 126.2 0.1 193 13.4
2006-11-23 09:19:24 51°21.703 2°58.129 128.7 0.1 201 13.5
2006-11-23 09:20:24 51°21.702 2°58.126 129.4 0.1 245 13.3
2006-11-23 09:21:24 51°21.7 2°58.122 129.8 0.1 261 13.5
2006-11-23 09:22:24 51°21.699 2°58.119 126.4 0.3 255 13.5
2006-11-23 09:23:24 51°21.698 2°58.116 124.8 0.1 295 13.4
2006-11-23 09:24:24 51°21.696 2°58.114 125.5 -999 330 13.5
2006-11-23 09:25:24 51°21.694 2°58.113 127.3 -999 128 13.5
2006-11-23 09:26:23 51°21.692 2°58.112 129.1 -999 54 13.4
2006-11-23 09:27:24 51°21.686 2°58.12 124.8 1.2 131 13.5
2006-11-23 09:28:23 51°21.674 2°58.17 87.3 2.4 86 13.3
2006-11-23 09:29:24 51°21.68 2°58.198 84.9 0.2 139 13.3
2006-11-23 09:30:23 51°21.679 2°58.202 105.3 0.3 115 13.3
2006-11-23 09:31:24 51°21.675 2°58.205 121.3 0.2 172 13.3
2006-11-23 09:32:23 51°21.672 2°58.207 129.2 0.3 173 13.3
2006-11-23 09:33:24 51°21.669 2°58.207 133.5 0.4 208 13.3
2006-11-23 09:34:24 51°21.664 2°58.206 138.2 0.3 194 13.2
2006-11-23 09:35:24 51°21.658 2°58.206 140.6 0.2 157 13.3
2006-11-23 09:36:24 51°21.653 2°58.206 141.6 0.4 185 12.9
2006-11-23 09:37:24 51°21.647 2°58.207 142.6 0.3 138 13.4
2006-11-23 09:38:24 51°21.642 2°58.208 143.4 0.3 170 13.4
2006-11-23 09:39:24 51°21.637 2°58.211 142.8 0.4 188 13.4
2006-11-23 09:40:23 51°21.633 2°58.215 142.5 0.4 162 13.2
2006-11-23 09:41:24 51°21.629 2°58.22 142 0.4 153 13.1
2006-11-23 09:42:23 51°21.623 2°58.229 143 0.7 124 13.4
2006-11-23 09:43:24 51°21.581 2°58.249 177.7 4.2 181 13.1
2006-11-23 09:44:24 51°21.52 2°58.181 247.6 5 248 13.2
2006-11-23 09:45:24 51°21.556 2°58.083 336.4 5.3 333 13.5
2006-11-23 09:46:24 51°21.649 2°58.094 25.5 5.4 18 13.6
2006-11-23 09:47:24 51°21.697 2°58.154 59.8 2 58 13.7
2006-11-23 09:48:24 51°21.697 2°58.161 114.9 0.1 170 13.6
2006-11-23 09:49:24 51°21.694 2°58.164 135.5 0.2 166 13.7
2006-11-23 09:50:24 51°21.691 2°58.168 140 0.2 113 13.6
2006-11-23 09:51:24 51°21.69 2°58.174 139.6 0.3 117 13.6
2006-11-23 09:52:23 51°21.686 2°58.182 141.9 0.4 102 13.6
2006-11-23 09:53:24 51°21.684 2°58.19 142.4 0.4 95 13.6
2006-11-23 09:54:24 51°21.68 2°58.197 142.3 0.4 142 13.5
2006-11-23 09:55:24 51°21.675 2°58.206 144.8 0.5 131 13.7
2006-11-23 09:56:23 51°21.669 2°58.215 147.8 0.4 135 13.6
2006-11-23 09:57:24 51°21.665 2°58.224 143.9 0.4 132 13.6
2006-11-23 09:58:24 51°21.661 2°58.233 142.4 0.3 122 13.7
2006-11-23 09:59:24 51°21.659 2°58.242 144.8 0.4 122 13.3
2006-11-23 10:00:24 51°21.656 2°58.254 145.1 0.4 107 13.9
2006-11-23 10:01:24 51°21.655 2°58.263 142.9 0.5 96 13.4
2006-11-23 10:02:24 51°21.653 2°58.273 143.7 0.3 109 13.7
2006-11-23 10:03:24 51°21.652 2°58.284 143.7 0.6 118 13.4
2006-11-23 10:04:24 51°21.627 2°58.309 161.7 3.1 157 13.2
2006-11-23 10:05:23 51°21.558 2°58.304 203.8 4.7 201 13.3
2006-11-23 10:06:24 51°21.504 2°58.218 253.1 4.1 244 13.2
2006-11-23 10:07:24 51°21.494 2°58.073 270.7 6.7 268 13.5
2006-11-23 10:08:24 51°21.488 2°57.877 272.4 7.2 270 13.5
2006-11-23 10:09:24 51°21.503 2°57.681 283.5 7.4 280 13.9
2006-11-23 10:10:24 51°21.522 2°57.489 283.1 6.8 279 14.5
2006-11-23 10:11:24 51°21.528 2°57.37 272.6 3.1 268 14.6
2006-11-23 10:12:23 51°21.528 2°57.342 267.6 1 73 14.6
2006-11-23 10:13:23 51°21.53 2°57.322 264.4 1.9 268 14.6
2006-11-23 10:14:23 51°21.533 2°57.326 285.2 0.5 69 4.8
2006-11-23 10:15:24 51°21.532 2°57.342 312.9 0.6 117 14.8
2006-11-23 10:16:24 51°21.526 2°57.362 337.4 0.8 124 14.3
2006-11-23 10:17:23 51°21.519 2°57.375 348.3 0.8 115 14.7
2006-11-23 10:18:24 51°21.513 2°57.385 351.2 0.8 104 14.8
2006-11-23 10:19:23 51°21.511 2°57.399 347.5 0.4 113 14.6
2006-11-23 10:20:24 51°21.509 2°57.41 337.2 0.3 87 14.7
2006-11-23 10:21:24 51°21.508 2°57.42 331.7 0.5 100 14.4
2006-11-23 10:22:24 51°21.506 2°57.435 332.7 0.5 134 14.2
2006-11-23 10:23:24 51°21.51 2°57.442 326.6 1.4 328 14.6
2006-11-23 10:24:24 51°21.522 2°57.377 269.2 3.2 265 14.8
2006-11-23 10:25:24 51°21.484 2°57.328 193.8 2.3 185 14.5
2006-11-23 10:26:25 51°21.487 2°57.335 153.1 0.3 12 -999
2006-11-23 10:27:24 51°21.492 2°57.343 130.1 0.5 63 15.1
2006-11-23 10:28:24 51°21.495 2°57.353 125.6 0.4 83 14.7
2006-11-23 10:29:24 51°21.495 2°57.369 138.1 0.5 102 15
2006-11-23 10:30:24 51°21.493 2°57.387 144.3 0.8 101 14.4
2006-11-23 10:31:25 51°21.49 2°57.406 145.4 0.9 101 14.4
2006-11-23 10:32:23 51°21.488 2°57.426 148.6 0.8 84 14.8
2006-11-23 10:33:24 51°21.486 2°57.447 144.8 0.7 91 15
2006-11-23 10:34:24 51°21.475 2°57.476 153.1 1.7 142 14.4
2006-11-23 10:35:24 51°21.473 2°57.495 149.5 0.6 68 14.9
2006-11-23 10:36:24 51°21.477 2°57.515 134.6 0.9 68 14.9
2006-11-23 10:37:24 51°21.44 2°57.559 170.5 4.9 169 14.5
2006-11-23 10:38:25 51°21.373 2°57.491 255.3 4.9 256 14.3
2006-11-23 10:39:24 51°21.435 2°57.416 1.5 6.1 359 14.8
2006-11-23 10:40:23 51°21.497 2°57.418 330.9 0.5 18 14.9
2006-11-23 10:41:24 51°21.498 2°57.44 336.3 0.9 77 14.9
2006-11-23 10:42:24 51°21.513 2°57.445 325.7 2.9 326 15
2006-11-23 10:43:24 51°21.518 2°57.352 248.1 4.1 238 15.2
2006-11-23 10:44:24 51°21.465 2°57.341 177 2.2 141 14.6
2006-11-23 10:45:24 51°21.465 2°57.364 143.5 0.6 87 15.3
2006-11-23 10:46:23 51°21.468 2°57.387 132.2 1.1 80 15.1
2006-11-23 10:47:24 51°21.469 2°57.413 135.7 0.9 90 15
2006-11-23 10:48:24 51°21.47 2°57.438 139.4 0.9 84 14.7
2006-11-23 10:49:25 51°21.472 2°57.464 138.4 0.9 88 14.7
2006-11-23 10:50:24 51°21.474 2°57.492 143.4 1.1 97 14.9
2006-11-23 10:51:24 51°21.476 2°57.522 145.5 1.1 86 15.1
2006-11-23 10:52:24 51°21.477 2°57.551 146 0.9 94 14
2006-11-23 10:53:24 51°21.478 2°57.58 146.5 1 87 14.6
2006-11-23 10:54:24 51°21.478 2°57.612 151.8 1.6 78 14.4
2006-11-23 10:55:24 51°21.455 2°57.649 175.9 2.9 156 15
2006-11-23 10:56:24 51°21.408 2°57.645 224 2.8 211 14.8
2006-11-23 10:57:25 51°21.399 2°57.592 297 2.6 312 14.7
2006-11-23 10:58:24 51°21.447 2°57.548 318.4 3.7 323 14.6
2006-11-23 10:59:24 51°21.471 2°57.478 270.4 2.7 271 15.3
2006-11-23 11:00:24 51°21.446 2°57.439 203.7 1.9 179 14.7
2006-11-23 11:01:23 51°21.433 2°57.462 178.4 1.1 79 14.9
2006-11-23 11:02:24 51°21.438 2°57.489 146.8 0.8 86 14.9
2006-11-23 11:03:25 51°21.444 2°57.519 132.8 1.1 77 15.3
2006-11-23 11:04:24 51°21.448 2°57.552 135 1.3 75 15.1
2006-11-23 11:05:24 51°21.421 2°57.598 174.1 3.3 163 14.7
2006-11-23 11:06:24 51°21.371 2°57.567 250.4 3.3 249 14.8
2006-11-23 11:07:24 51°21.418 2°57.511 354.6 5.3 359 14.3
2006-11-23 11:08:23 51°21.488 2°57.461 293.2 4.3 292 15.6
2006-11-23 11:09:23 51°21.476 2°57.401 227.8 0.4 143 15.6
2006-11-23 11:10:25 51°21.475 2°57.427 207.6 1.2 112 5.5
2006-11-23 11:11:24 51°21.467 2°57.457 196.4 1.6 105 15.5
2006-11-23 11:12:24 51°21.462 2°57.491 179.6 1.3 102 15.3
2006-11-23 11:13:24 51°21.454 2°57.53 172 1.5 113 15.4
2006-11-23 11:14:24 51°21.444 2°57.571 170.7 1.7 121 15
2006-11-23 11:15:25 51°21.436 2°57.613 156 2 124 15.4
2006-11-23 11:16:23 51°21.42 2°57.694 100.3 4 91 14.9
2006-11-23 11:17:24 51°21.454 2°57.788 29.7 3.9 26 14.8
2006-11-23 11:18:24 51°21.508 2°57.794 323.1 2.9 340 14.7
2006-11-23 11:19:24 51°21.534 2°57.756 280.5 1.6 302 15.2
2006-11-23 11:20:24 51°21.532 2°57.726 236.8 1.2 221 15
2006-11-23 11:21:24 51°21.51 2°57.624 265.9 5.7 264 15.7
2006-11-23 11:22:23 51°21.487 2°57.478 264.6 4.2 259 15.4
2006-11-23 11:23:24 51°21.466 2°57.446 222 1.2 110 15.2
2006-11-23 11:24:25 51°21.467 2°57.485 192.8 1.8 101 6.4
2006-11-23 11:25:24 51°21.432 2°57.499 223.3 2.4 194 15.7
2006-11-23 11:26:24 51°21.422 2°57.498 261.9 1.1 74 15.7
2006-11-23 11:27:24 51°21.434 2°57.516 280.1 0.9 358 15.4
2006-11-23 11:28:24 51°21.445 2°57.518 267.8 1.2 51 15.5
2006-11-23 11:29:24 51°21.46 2°57.535 274.3 0.8 358 15.5
2006-11-23 11:30:25 51°21.471 2°57.549 266.6 1.4 55 15.7
2006-11-23 11:31:24 51°21.487 2°57.574 285.6 1 2 15.8
2006-11-23 11:32:25 51°21.484 2°57.529 244.6 3.1 232 15.7
2006-11-23 11:33:24 51°21.47 2°57.447 279.5 4 284 16
2006-11-23 11:34:24 51°21.483 2°57.434 276.4 0.9 14 16.3
2006-11-23 11:35:25 51°21.497 2°57.434 275.5 1.2 42 15.8
2006-11-23 11:36:24 51°21.511 2°57.449 275 0.9 16 16.1
2006-11-23 11:37:23 51°21.521 2°57.453 257 0.6 6 16.2
2006-11-23 11:38:24 51°21.524 2°57.467 236.3 0.9 82 16.4
2006-11-23 11:39:24 51°21.519 2°57.495 217.1 1.6 105 15.1
2006-11-23 11:40:24 51°21.501 2°57.523 211.7 2.9 170 16.2
2006-11-23 11:41:23 51°21.463 2°57.469 266.1 1.9 268 16.2
2006-11-23 11:42:25 51°21.475 2°57.473 285.5 1.2 351 16.1
2006-11-23 11:43:24 51°21.491 2°57.48 280.5 0.8 27 16.2
2006-11-23 11:44:23 51°21.505 2°57.493 267.6 0.6 24 16.2
2006-11-23 11:45:24 51°21.506 2°57.506 228.7 1.4 117 16
2006-11-23 11:46:24 51°21.488 2°57.543 204 2.6 151 16.7
2006-11-23 11:47:24 51°21.444 2°57.557 215.7 2.5 180 16.1
2006-11-23 11:48:24 51°21.406 2°57.539 242.4 3.2 225 16.4
2006-11-23 11:49:24 51°21.346 2°57.429 236.7 6.7 227 16
2006-11-23 11:50:24 51°21.267 2°57.296 237.6 6.8 227 16.1
2006-11-23 11:51:24 51°21.194 2°57.161 239.7 7.3 230 15.9
2006-11-23 11:52:24 51°21.119 2°57.019 240 6.6 228 16.1
2006-11-23 11:53:24 51°21.046 2°56.883 241.1 6.8 232 15.9
2006-11-23 11:54:23 51°20.975 2°56.745 239.2 6.6 229 15.5
2006-11-23 11:55:24 51°20.902 2°56.604 241.5 6.7 232 15.6
2006-11-23 11:56:24 51°20.829 2°56.457 240.2 7 230 15.8
2006-11-23 11:57:24 51°20.756 2°56.326 235.8 6 221 15.4
2006-11-23 11:58:24 51°20.686 2°56.193 240.2 6.8 234 15.9
2006-11-23 11:59:24 51°20.609 2°56.048 237.7 7.3 228 15.9
2006-11-23 12:00:24 51°20.529 2°55.899 237.3 7.8 228 15.8
2006-11-23 12:01:24 51°20.449 2°55.75 236.6 6.6 225 15.8
2006-11-23 12:02:24 51°20.382 2°55.635 238 5.6 226 16
2006-11-23 12:03:23 51°20.311 2°55.504 237.7 7.7 229 15.8
2006-11-23 12:04:24 51°20.223 2°55.326 238.2 8.6 230 15.5
2006-11-23 12:05:24 51°20.134 2°55.157 236.3 8.6 229 15.5
2006-11-23 12:06:23 51°20.04 2°54.996 234.9 8.9 226 15.6
2006-11-23 12:07:24 51°19.939 2°54.829 234.7 8.5 229 16.1
2006-11-23 12:08:23 51°19.843 2°54.663 234.9 8.5 228 16
2006-11-23 12:09:24 51°19.75 2°54.499 234.4 7.7 227 15.6
2006-11-23 12:10:24 51°19.672 2°54.375 234.9 6.8 227 15.7
2006-11-23 12:11:24 51°19.59 2°54.247 229.5 7.4 221 15.2
2006-11-23 12:12:24 51°19.5 2°54.126 227.1 6.9 219 15.1
2006-11-23 12:13:24 51°19.409 2°54.007 227.5 6.8 217 15.3
2006-11-23 12:14:23 51°19.328 2°53.893 233.1 6.7 224 15.2
2006-11-23 12:15:24 51°19.252 2°53.772 235.3 6.8 228 15.5
2006-11-23 12:16:24 51°19.174 2°53.651 233.2 6.3 224 4.3
2006-11-23 12:17:23 51°19.115 2°53.555 234.5 4.1 222 15.1
2006-11-23 12:18:23 51°19.067 2°53.496 232 3.2 210 14.9
2006-11-23 12:19:24 51°19.019 2°53.427 233.6 4 221 15
2006-11-23 12:20:23 51°18.972 2°53.361 232.7 3.4 218 14.7
2006-11-23 12:21:24 51°18.927 2°53.302 232.8 3.1 213 14.8
2006-11-23 12:22:24 51°18.888 2°53.257 235.2 3.5 222 15.3
2006-11-23 12:23:24 51°18.844 2°53.19 234.7 4.2 226 14.9
2006-11-23 12:24:24 51°18.798 2°53.131 230.8 2.7 213 14
2006-11-23 12:25:24 51°18.756 2°53.069 234.4 4 227 14.8
2006-11-23 12:26:24 51°18.689 2°52.982 225.7 5.7 217 14.5
2006-11-23 12:27:24 51°18.6 2°52.893 221.3 7.2 213 14.6
2006-11-23 12:28:24 51°18.487 2°52.79 216.4 7.6 205 14.3
2006-11-23 12:29:24 51°18.364 2°52.701 209.6 8.5 202 14.2
2006-11-23 12:30:23 51°18.225 2°52.639 203.9 8.8 193 13.8
2006-11-23 12:31:24 51°18.083 2°52.606 200.4 8.1 186 13
2006-11-23 12:32:24 51°17.944 2°52.569 199.6 8.4 188 13.6
2006-11-23 12:33:23 51°17.808 2°52.534 200.5 8.3 184 13.5
2006-11-23 12:34:23 51°17.663 2°52.51 196.9 8.8 186 13.9
2006-11-23 12:35:24 51°17.518 2°52.495 197.4 8.7 183 13.4
2006-11-23 12:36:24 51°17.367 2°52.495 185.9 9.7 170 13.8
2006-11-23 12:37:24 51°17.208 2°52.541 179.5 9.7 169 12.9
2006-11-23 12:38:24 51°17.048 2°52.599 180 9.7 168 13
2006-11-23 12:39:23 51°16.893 2°52.667 176.7 9.9 166 12.9
2006-11-23 12:40:23 51°16.734 2°52.736 177.7 10 166 13.7
2006-11-23 12:41:24 51°16.573 2°52.821 172.9 10.3 157 14.6
2006-11-23 12:42:23 51°16.418 2°52.917 173.7 10.2 158 15.3
2006-11-23 12:43:24 51°16.259 2°53.014 175.3 10.3 158 15.5
2006-11-23 12:44:24 51°16.101 2°53.107 174.1 9.9 163 15
2006-11-23 12:45:23 51°15.945 2°53.2 174.7 10.3 160 14.8
2006-11-23 12:46:23 51°15.787 2°53.298 170.3 10.3 157 14.4
2006-11-23 12:47:23 51°15.631 2°53.413 167.5 10.6 152 14
2006-11-23 12:48:23 51°15.476 2°53.527 168.6 10.3 154 13.7
2006-11-23 12:49:23 51°15.324 2°53.64 171.6 10 156 13.3
2006-11-23 12:50:23 51°15.173 2°53.765 156 10.6 144 12.6
2006-11-23 12:51:24 51°15.038 2°53.987 142.9 12.3 134 12.1
2006-11-23 12:52:24 51°14.9 2°54.239 142.2 12.6 129 12.4
2006-11-23 12:53:24 51°14.752 2°54.479 150.5 12.8 136 12.5
2006-11-23 12:54:23 51°14.595 2°54.688 153.3 12.5 140 12.6
2006-11-23 12:55:23 51°14.439 2°54.914 146.8 12.8 137 13.7
2006-11-23 12:56:24 51°14.307 2°55.178 129.2 12.3 127 13.2
2006-11-23 12:57:23 51°14.201 2°55.354 147.2 7.3 145 13.8
2006-11-23 12:58:24 51°14.111 2°55.425 158.5 5.2 155 13.3
2006-11-23 12:59:23 51°14.037 2°55.478 159.4 4.9 154 12.9
2006-11-23 13:00:23 51°13.962 2°55.532 158.1 5.4 155 13.4
2006-11-23 13:01:24 51°13.868 2°55.6 160.3 6.5 156 13.1
2006-11-23 13:02:24 51°13.781 2°55.69 140.1 5.5 138 12.6
2006-11-23 13:03:24 51°13.724 2°55.804 130.2 6.6 127 13.9
2006-11-23 13:04:24 51°13.653 2°55.952 131.7 6.4 129 10.9
2006-11-23 13:05:23 51°13.619 2°56.016 114.2 0.1 157 12
2006-11-23 13:06:25 51°13.605 2°56.067 114.1 2.7 116 11.2
2006-11-23 13:07:24 51°13.598 2°56.088 122.7 0.2 148 10.7
2006-11-23 13:08:25 51°13.6 2°56.088 123 0.1 356 10.4
2006-11-23 13:09:24 51°13.6 2°56.087 127.6 -999 121 5
2006-11-23 13:10:24 51°13.596 2°56.09 128.5 0.2 312 10.5
2006-11-23 13:11:23 51°13.599 2°56.089 120.4 -999 126 10.3
2006-11-23 13:12:25 51°13.598 2°56.093 126 0.2 41 10.3